sensor_id;sensor_type;location;lat;lon;timestamp;P1;durP1;ratioP1;P2;durP2;ratioP2
2404;SDS011;1213;43.206;27.922;2023-01-16T00:01:23;2.70;;;1.50;;
2404;SDS011;1213;43.206;27.922;2023-01-16T00:03:49;2.43;;;2.23;;
2404;SDS011;1213;43.206;27.922;2023-01-16T00:06:15;2.63;;;2.20;;
2404;SDS011;1213;43.206;27.922;2023-01-16T00:08:40;1.73;;;1.63;;
2404;SDS011;1213;43.206;27.922;2023-01-16T00:11:06;2.13;;;1.97;;
2404;SDS011;1213;43.206;27.922;2023-01-16T00:13:31;2.70;;;2.37;;
2404;SDS011;1213;43.206;27.922;2023-01-16T00:15:57;1.93;;;1.83;;
2404;SDS011;1213;43.206;27.922;2023-01-16T00:18:23;5.47;;;3.67;;
2404;SDS011;1213;43.206;27.922;2023-01-16T00:20:48;4.43;;;2.20;;
2404;SDS011;1213;43.206;27.922;2023-01-16T00:23:14;3.23;;;2.47;;
2404;SDS011;1213;43.206;27.922;2023-01-16T00:25:40;3.60;;;2.07;;
2404;SDS011;1213;43.206;27.922;2023-01-16T00:28:06;2.10;;;2.00;;
2404;SDS011;1213;43.206;27.922;2023-01-16T00:30:32;2.33;;;1.33;;
2404;SDS011;1213;43.206;27.922;2023-01-16T00:32:57;1.90;;;1.80;;
2404;SDS011;1213;43.206;27.922;2023-01-16T00:35:22;2.40;;;2.20;;
2404;SDS011;1213;43.206;27.922;2023-01-16T00:37:47;3.93;;;2.00;;
2404;SDS011;1213;43.206;27.922;2023-01-16T00:40:13;1.77;;;1.67;;
2404;SDS011;1213;43.206;27.922;2023-01-16T00:42:38;1.63;;;1.53;;
2404;SDS011;1213;43.206;27.922;2023-01-16T00:45:04;3.27;;;2.13;;
2404;SDS011;1213;43.206;27.922;2023-01-16T00:47:29;2.17;;;1.50;;
2404;SDS011;1213;43.206;27.922;2023-01-16T00:49:54;6.53;;;2.30;;
2404;SDS011;1213;43.206;27.922;2023-01-16T00:52:19;3.43;;;2.37;;
2404;SDS011;1213;43.206;27.922;2023-01-16T00:54:45;3.03;;;1.83;;
2404;SDS011;1213;43.206;27.922;2023-01-16T00:57:10;2.10;;;1.90;;
2404;SDS011;1213;43.206;27.922;2023-01-16T00:59:36;3.47;;;2.73;;
2404;SDS011;1213;43.206;27.922;2023-01-16T01:02:01;2.20;;;2.10;;
2404;SDS011;1213;43.206;27.922;2023-01-16T01:04:27;4.53;;;1.53;;
2404;SDS011;1213;43.206;27.922;2023-01-16T01:06:53;1.73;;;1.40;;
2404;SDS011;1213;43.206;27.922;2023-01-16T01:09:18;3.30;;;2.00;;
2404;SDS011;1213;43.206;27.922;2023-01-16T01:11:43;1.40;;;1.30;;
2404;SDS011;1213;43.206;27.922;2023-01-16T01:14:08;11.03;;;2.17;;
2404;SDS011;1213;43.206;27.922;2023-01-16T01:16:34;1.30;;;1.20;;
2404;SDS011;1213;43.206;27.922;2023-01-16T01:18:59;3.90;;;2.50;;
2404;SDS011;1213;43.206;27.922;2023-01-16T01:21:24;3.83;;;2.10;;
2404;SDS011;1213;43.206;27.922;2023-01-16T01:23:50;1.87;;;1.70;;
2404;SDS011;1213;43.206;27.922;2023-01-16T01:26:15;2.17;;;1.90;;
2404;SDS011;1213;43.206;27.922;2023-01-16T01:28:41;2.30;;;1.97;;
2404;SDS011;1213;43.206;27.922;2023-01-16T01:31:07;3.60;;;2.60;;
2404;SDS011;1213;43.206;27.922;2023-01-16T01:33:33;2.00;;;1.90;;
2404;SDS011;1213;43.206;27.922;2023-01-16T01:35:59;2.17;;;1.70;;
2404;SDS011;1213;43.206;27.922;2023-01-16T01:38:24;2.53;;;2.00;;
2404;SDS011;1213;43.206;27.922;2023-01-16T01:40:49;2.77;;;2.57;;
2404;SDS011;1213;43.206;27.922;2023-01-16T01:43:15;3.40;;;2.37;;
2404;SDS011;1213;43.206;27.922;2023-01-16T01:45:41;2.10;;;1.90;;
2404;SDS011;1213;43.206;27.922;2023-01-16T01:50:48;2.60;;;2.00;;
2404;SDS011;1213;43.206;27.922;2023-01-16T01:53:26;2.60;;;1.90;;
2404;SDS011;1213;43.206;27.922;2023-01-16T01:55:52;3.23;;;2.67;;
2404;SDS011;1213;43.206;27.922;2023-01-16T01:58:19;1.83;;;1.73;;
2404;SDS011;1213;43.206;27.922;2023-01-16T02:00:47;3.67;;;1.70;;
2404;SDS011;1213;43.206;27.922;2023-01-16T02:03:15;8.13;;;3.33;;
2404;SDS011;1213;43.206;27.922;2023-01-16T02:05:45;2.77;;;2.27;;
2404;SDS011;1213;43.206;27.922;2023-01-16T02:08:17;4.50;;;2.07;;
2404;SDS011;1213;43.206;27.922;2023-01-16T02:10:50;2.53;;;2.20;;
2404;SDS011;1213;43.206;27.922;2023-01-16T02:13:16;1.40;;;1.30;;
2404;SDS011;1213;43.206;27.922;2023-01-16T02:15:41;3.67;;;2.37;;
2404;SDS011;1213;43.206;27.922;2023-01-16T02:18:27;1.70;;;1.53;;
2404;SDS011;1213;43.206;27.922;2023-01-16T02:33:51;2.43;;;2.23;;
2404;SDS011;1213;43.206;27.922;2023-01-16T02:41:44;3.10;;;2.40;;
2404;SDS011;1213;43.206;27.922;2023-01-16T02:46:42;8.90;;;2.30;;
2404;SDS011;1213;43.206;27.922;2023-01-16T02:49:19;1.57;;;1.47;;
2404;SDS011;1213;43.206;27.922;2023-01-16T02:54:20;4.10;;;2.50;;
2404;SDS011;1213;43.206;27.922;2023-01-16T02:56:53;2.47;;;2.27;;
2404;SDS011;1213;43.206;27.922;2023-01-16T02:59:21;3.23;;;2.50;;
2404;SDS011;1213;43.206;27.922;2023-01-16T03:01:48;2.20;;;2.00;;
2404;SDS011;1213;43.206;27.922;2023-01-16T03:09:44;2.73;;;2.53;;
2404;SDS011;1213;43.206;27.922;2023-01-16T03:15:04;2.83;;;2.30;;
2404;SDS011;1213;43.206;27.922;2023-01-16T03:27:25;3.03;;;2.60;;
2404;SDS011;1213;43.206;27.922;2023-01-16T03:29:54;4.27;;;2.27;;
2404;SDS011;1213;43.206;27.922;2023-01-16T03:37:43;2.90;;;2.60;;
2404;SDS011;1213;43.206;27.922;2023-01-16T03:40:11;2.40;;;2.20;;
2404;SDS011;1213;43.206;27.922;2023-01-16T03:42:50;4.50;;;2.60;;
2404;SDS011;1213;43.206;27.922;2023-01-16T03:45:19;3.07;;;2.70;;
2404;SDS011;1213;43.206;27.922;2023-01-16T03:47:48;3.97;;;2.63;;
2404;SDS011;1213;43.206;27.922;2023-01-16T03:50:14;3.90;;;2.37;;
2404;SDS011;1213;43.206;27.922;2023-01-16T03:52:46;3.03;;;2.17;;
2404;SDS011;1213;43.206;27.922;2023-01-16T03:57:40;2.60;;;2.40;;
2404;SDS011;1213;43.206;27.922;2023-01-16T04:00:06;3.63;;;3.00;;
2404;SDS011;1213;43.206;27.922;2023-01-16T04:05:27;2.93;;;2.60;;
2404;SDS011;1213;43.206;27.922;2023-01-16T04:07:58;4.50;;;3.23;;
2404;SDS011;1213;43.206;27.922;2023-01-16T04:10:26;2.67;;;2.47;;
2404;SDS011;1213;43.206;27.922;2023-01-16T04:12:55;2.60;;;2.40;;
2404;SDS011;1213;43.206;27.922;2023-01-16T04:15:22;3.77;;;2.93;;
2404;SDS011;1213;43.206;27.922;2023-01-16T04:17:49;4.90;;;2.60;;
2404;SDS011;1213;43.206;27.922;2023-01-16T04:20:15;5.40;;;2.90;;
2404;SDS011;1213;43.206;27.922;2023-01-16T04:22:40;2.67;;;2.37;;
2404;SDS011;1213;43.206;27.922;2023-01-16T04:25:06;2.77;;;2.57;;
2404;SDS011;1213;43.206;27.922;2023-01-16T04:27:32;3.17;;;2.90;;
2404;SDS011;1213;43.206;27.922;2023-01-16T04:29:57;3.77;;;2.40;;
2404;SDS011;1213;43.206;27.922;2023-01-16T04:32:23;1.90;;;1.80;;
2404;SDS011;1213;43.206;27.922;2023-01-16T04:34:48;4.00;;;1.53;;
2404;SDS011;1213;43.206;27.922;2023-01-16T04:37:14;2.03;;;1.90;;
2404;SDS011;1213;43.206;27.922;2023-01-16T04:39:40;2.50;;;2.30;;
2404;SDS011;1213;43.206;27.922;2023-01-16T04:42:08;2.37;;;2.20;;
2404;SDS011;1213;43.206;27.922;2023-01-16T04:44:33;2.70;;;2.03;;
2404;SDS011;1213;43.206;27.922;2023-01-16T04:46:59;1.73;;;1.60;;
2404;SDS011;1213;43.206;27.922;2023-01-16T04:49:24;2.43;;;2.30;;
2404;SDS011;1213;43.206;27.922;2023-01-16T04:51:50;2.87;;;2.50;;
2404;SDS011;1213;43.206;27.922;2023-01-16T04:54:16;3.63;;;2.50;;
2404;SDS011;1213;43.206;27.922;2023-01-16T04:56:42;2.67;;;2.47;;
2404;SDS011;1213;43.206;27.922;2023-01-16T04:59:08;3.00;;;2.70;;
2404;SDS011;1213;43.206;27.922;2023-01-16T05:01:33;2.73;;;2.13;;
2404;SDS011;1213;43.206;27.922;2023-01-16T05:04:03;6.03;;;3.17;;
2404;SDS011;1213;43.206;27.922;2023-01-16T05:06:30;4.23;;;2.50;;
2404;SDS011;1213;43.206;27.922;2023-01-16T05:08:56;1.90;;;1.80;;
2404;SDS011;1213;43.206;27.922;2023-01-16T05:11:22;2.70;;;1.70;;
2404;SDS011;1213;43.206;27.922;2023-01-16T05:13:47;1.93;;;1.70;;
2404;SDS011;1213;43.206;27.922;2023-01-16T05:16:12;2.70;;;2.10;;
2404;SDS011;1213;43.206;27.922;2023-01-16T05:18:38;4.60;;;1.90;;
2404;SDS011;1213;43.206;27.922;2023-01-16T05:21:03;1.93;;;1.83;;
2404;SDS011;1213;43.206;27.922;2023-01-16T05:23:30;4.10;;;2.10;;
2404;SDS011;1213;43.206;27.922;2023-01-16T05:25:55;1.70;;;1.60;;
2404;SDS011;1213;43.206;27.922;2023-01-16T05:28:20;4.17;;;2.93;;
2404;SDS011;1213;43.206;27.922;2023-01-16T05:30:49;2.37;;;2.20;;
2404;SDS011;1213;43.206;27.922;2023-01-16T05:33:14;1.70;;;1.60;;
2404;SDS011;1213;43.206;27.922;2023-01-16T05:35:40;2.37;;;1.90;;
2404;SDS011;1213;43.206;27.922;2023-01-16T05:38:05;2.60;;;2.40;;
2404;SDS011;1213;43.206;27.922;2023-01-16T05:40:30;4.33;;;3.20;;
2404;SDS011;1213;43.206;27.922;2023-01-16T05:42:56;2.50;;;2.20;;
2404;SDS011;1213;43.206;27.922;2023-01-16T05:45:21;3.90;;;3.20;;
2404;SDS011;1213;43.206;27.922;2023-01-16T05:47:47;5.70;;;2.40;;
2404;SDS011;1213;43.206;27.922;2023-01-16T05:50:12;6.57;;;3.33;;
2404;SDS011;1213;43.206;27.922;2023-01-16T05:52:37;3.27;;;2.97;;
2404;SDS011;1213;43.206;27.922;2023-01-16T05:55:03;3.67;;;2.80;;
2404;SDS011;1213;43.206;27.922;2023-01-16T05:57:28;3.73;;;2.90;;
2404;SDS011;1213;43.206;27.922;2023-01-16T05:59:54;3.13;;;2.83;;
2404;SDS011;1213;43.206;27.922;2023-01-16T06:02:20;4.73;;;3.63;;
2404;SDS011;1213;43.206;27.922;2023-01-16T06:04:45;3.77;;;3.37;;
2404;SDS011;1213;43.206;27.922;2023-01-16T06:07:11;5.83;;;3.97;;
2404;SDS011;1213;43.206;27.922;2023-01-16T06:09:37;4.20;;;2.77;;
2404;SDS011;1213;43.206;27.922;2023-01-16T06:12:02;3.33;;;2.53;;
2404;SDS011;1213;43.206;27.922;2023-01-16T06:14:27;13.83;;;2.93;;
2404;SDS011;1213;43.206;27.922;2023-01-16T06:16:53;14.17;;;8.47;;
2404;SDS011;1213;43.206;27.922;2023-01-16T06:19:18;15.07;;;9.07;;
2404;SDS011;1213;43.206;27.922;2023-01-16T06:21:43;12.97;;;3.93;;
2404;SDS011;1213;43.206;27.922;2023-01-16T06:24:09;4.60;;;3.20;;
2404;SDS011;1213;43.206;27.922;2023-01-16T06:26:34;6.50;;;3.10;;
2404;SDS011;1213;43.206;27.922;2023-01-16T06:28:59;3.73;;;2.43;;
2404;SDS011;1213;43.206;27.922;2023-01-16T06:31:25;4.43;;;2.77;;
2404;SDS011;1213;43.206;27.922;2023-01-16T06:33:50;2.90;;;2.40;;
2404;SDS011;1213;43.206;27.922;2023-01-16T06:36:15;3.07;;;2.53;;
2404;SDS011;1213;43.206;27.922;2023-01-16T06:38:41;4.93;;;3.10;;
2404;SDS011;1213;43.206;27.922;2023-01-16T06:41:06;2.83;;;2.03;;
2404;SDS011;1213;43.206;27.922;2023-01-16T06:43:32;3.57;;;2.67;;
2404;SDS011;1213;43.206;27.922;2023-01-16T06:45:57;2.93;;;2.63;;
2404;SDS011;1213;43.206;27.922;2023-01-16T06:48:23;3.20;;;2.77;;
2404;SDS011;1213;43.206;27.922;2023-01-16T06:50:48;4.83;;;3.50;;
2404;SDS011;1213;43.206;27.922;2023-01-16T06:53:14;4.43;;;3.50;;
2404;SDS011;1213;43.206;27.922;2023-01-16T06:55:39;3.27;;;2.97;;
2404;SDS011;1213;43.206;27.922;2023-01-16T06:58:05;3.20;;;2.60;;
2404;SDS011;1213;43.206;27.922;2023-01-16T07:00:30;5.87;;;4.03;;
2404;SDS011;1213;43.206;27.922;2023-01-16T07:02:56;6.40;;;5.00;;
2404;SDS011;1213;43.206;27.922;2023-01-16T07:05:25;19.57;;;13.90;;
2404;SDS011;1213;43.206;27.922;2023-01-16T07:07:51;42.40;;;21.43;;
2404;SDS011;1213;43.206;27.922;2023-01-16T07:10:17;4.20;;;3.80;;
2404;SDS011;1213;43.206;27.922;2023-01-16T07:12:42;3.50;;;2.80;;
2404;SDS011;1213;43.206;27.922;2023-01-16T07:15:08;3.70;;;3.40;;
2404;SDS011;1213;43.206;27.922;2023-01-16T07:17:52;3.63;;;3.03;;
2404;SDS011;1213;43.206;27.922;2023-01-16T07:20:41;5.23;;;2.70;;
2404;SDS011;1213;43.206;27.922;2023-01-16T07:23:29;4.22;;;3.28;;
2404;SDS011;1213;43.206;27.922;2023-01-16T07:25:58;5.27;;;3.30;;
2404;SDS011;1213;43.206;27.922;2023-01-16T07:28:24;3.70;;;3.17;;
2404;SDS011;1213;43.206;27.922;2023-01-16T07:30:50;4.10;;;2.80;;
2404;SDS011;1213;43.206;27.922;2023-01-16T07:33:15;18.07;;;3.17;;
2404;SDS011;1213;43.206;27.922;2023-01-16T07:35:40;3.30;;;3.00;;
2404;SDS011;1213;43.206;27.922;2023-01-16T07:38:06;6.32;;;3.50;;
2404;SDS011;1213;43.206;27.922;2023-01-16T07:40:31;3.50;;;2.63;;
2404;SDS011;1213;43.206;27.922;2023-01-16T07:42:56;4.03;;;3.07;;
2404;SDS011;1213;43.206;27.922;2023-01-16T07:45:22;8.33;;;3.77;;
2404;SDS011;1213;43.206;27.922;2023-01-16T07:47:47;4.20;;;2.23;;
2404;SDS011;1213;43.206;27.922;2023-01-16T07:52:38;4.73;;;2.87;;
2404;SDS011;1213;43.206;27.922;2023-01-16T07:55:03;3.67;;;3.37;;
2404;SDS011;1213;43.206;27.922;2023-01-16T07:57:28;8.73;;;3.20;;
2404;SDS011;1213;43.206;27.922;2023-01-16T07:59:54;2.87;;;2.67;;
2404;SDS011;1213;43.206;27.922;2023-01-16T08:02:19;4.77;;;4.10;;
2404;SDS011;1213;43.206;27.922;2023-01-16T08:04:45;5.00;;;3.77;;
2404;SDS011;1213;43.206;27.922;2023-01-16T08:07:10;7.23;;;3.60;;
2404;SDS011;1213;43.206;27.922;2023-01-16T08:09:35;4.73;;;3.80;;
2404;SDS011;1213;43.206;27.922;2023-01-16T08:12:01;5.90;;;3.33;;
2404;SDS011;1213;43.206;27.922;2023-01-16T08:14:26;4.83;;;3.43;;
2404;SDS011;1213;43.206;27.922;2023-01-16T08:16:52;5.47;;;4.00;;
2404;SDS011;1213;43.206;27.922;2023-01-16T08:19:17;3.63;;;3.33;;
2404;SDS011;1213;43.206;27.922;2023-01-16T08:21:43;4.43;;;3.23;;
2404;SDS011;1213;43.206;27.922;2023-01-16T08:24:08;3.10;;;2.43;;
2404;SDS011;1213;43.206;27.922;2023-01-16T08:26:34;3.43;;;2.70;;
2404;SDS011;1213;43.206;27.922;2023-01-16T08:29:00;3.73;;;3.40;;
2404;SDS011;1213;43.206;27.922;2023-01-16T08:31:27;5.17;;;3.10;;
2404;SDS011;1213;43.206;27.922;2023-01-16T08:33:52;3.50;;;2.77;;
2404;SDS011;1213;43.206;27.922;2023-01-16T08:36:18;3.00;;;2.80;;
2404;SDS011;1213;43.206;27.922;2023-01-16T08:38:45;6.23;;;3.07;;
2404;SDS011;1213;43.206;27.922;2023-01-16T08:41:11;4.30;;;3.50;;
2404;SDS011;1213;43.206;27.922;2023-01-16T08:43:54;3.10;;;2.80;;
2404;SDS011;1213;43.206;27.922;2023-01-16T08:46:38;4.10;;;3.40;;
2404;SDS011;1213;43.206;27.922;2023-01-16T08:49:23;3.90;;;3.60;;
2404;SDS011;1213;43.206;27.922;2023-01-16T08:52:07;5.13;;;3.70;;
2404;SDS011;1213;43.206;27.922;2023-01-16T08:54:32;12.67;;;7.47;;
2404;SDS011;1213;43.206;27.922;2023-01-16T08:56:58;18.13;;;12.17;;
2404;SDS011;1213;43.206;27.922;2023-01-16T08:59:23;11.00;;;6.13;;
2404;SDS011;1213;43.206;27.922;2023-01-16T09:01:48;5.70;;;3.83;;
2404;SDS011;1213;43.206;27.922;2023-01-16T09:04:17;5.53;;;3.63;;
2404;SDS011;1213;43.206;27.922;2023-01-16T09:06:42;4.17;;;3.43;;
2404;SDS011;1213;43.206;27.922;2023-01-16T09:09:08;3.73;;;3.03;;
2404;SDS011;1213;43.206;27.922;2023-01-16T09:11:33;3.43;;;2.93;;
2404;SDS011;1213;43.206;27.922;2023-01-16T09:14:34;2.97;;;2.67;;
2404;SDS011;1213;43.206;27.922;2023-01-16T09:16:59;2.87;;;2.60;;
2404;SDS011;1213;43.206;27.922;2023-01-16T09:19:25;4.17;;;3.27;;
2404;SDS011;1213;43.206;27.922;2023-01-16T09:21:50;3.50;;;3.10;;
2404;SDS011;1213;43.206;27.922;2023-01-16T09:24:15;4.43;;;3.00;;
2404;SDS011;1213;43.206;27.922;2023-01-16T09:26:40;5.50;;;4.10;;
2404;SDS011;1213;43.206;27.922;2023-01-16T09:29:06;11.00;;;4.30;;
2404;SDS011;1213;43.206;27.922;2023-01-16T09:31:31;3.77;;;3.30;;
2404;SDS011;1213;43.206;27.922;2023-01-16T09:33:56;5.30;;;3.50;;
2404;SDS011;1213;43.206;27.922;2023-01-16T09:36:22;8.03;;;4.57;;
2404;SDS011;1213;43.206;27.922;2023-01-16T09:38:47;8.20;;;4.43;;
2404;SDS011;1213;43.206;27.922;2023-01-16T09:41:16;3.23;;;2.90;;
2404;SDS011;1213;43.206;27.922;2023-01-16T09:44:02;9.07;;;5.43;;
2404;SDS011;1213;43.206;27.922;2023-01-16T09:46:28;4.97;;;3.90;;
2404;SDS011;1213;43.206;27.922;2023-01-16T09:48:56;5.03;;;4.13;;
2404;SDS011;1213;43.206;27.922;2023-01-16T09:51:26;9.50;;;5.33;;
2404;SDS011;1213;43.206;27.922;2023-01-16T09:53:54;4.40;;;3.93;;
2404;SDS011;1213;43.206;27.922;2023-01-16T09:56:40;9.47;;;5.77;;
2404;SDS011;1213;43.206;27.922;2023-01-16T10:00:11;5.03;;;4.00;;
2404;SDS011;1213;43.206;27.922;2023-01-16T10:04:43;6.73;;;4.27;;
2404;SDS011;1213;43.206;27.922;2023-01-16T10:07:18;7.07;;;4.80;;
2404;SDS011;1213;43.206;27.922;2023-01-16T10:12:35;11.10;;;7.57;;
2404;SDS011;1213;43.206;27.922;2023-01-16T10:15:09;7.00;;;4.70;;
2404;SDS011;1213;43.206;27.922;2023-01-16T10:17:55;5.50;;;4.50;;
2404;SDS011;1213;43.206;27.922;2023-01-16T10:35:23;5.50;;;3.40;;
2404;SDS011;1213;43.206;27.922;2023-01-16T10:37:49;3.17;;;2.73;;
2404;SDS011;1213;43.206;27.922;2023-01-16T10:40:17;3.17;;;2.70;;
2404;SDS011;1213;43.206;27.922;2023-01-16T10:42:44;7.07;;;4.37;;
2404;SDS011;1213;43.206;27.922;2023-01-16T10:45:33;5.17;;;3.33;;
2404;SDS011;1213;43.206;27.922;2023-01-16T10:48:18;7.43;;;3.37;;
2404;SDS011;1213;43.206;27.922;2023-01-16T10:51:02;4.77;;;3.53;;
2404;SDS011;1213;43.206;27.922;2023-01-16T10:53:32;4.13;;;3.73;;
2404;SDS011;1213;43.206;27.922;2023-01-16T10:55:58;4.50;;;4.10;;
2404;SDS011;1213;43.206;27.922;2023-01-16T10:58:33;2.97;;;2.27;;
2404;SDS011;1213;43.206;27.922;2023-01-16T11:01:17;5.63;;;3.97;;
2404;SDS011;1213;43.206;27.922;2023-01-16T11:03:50;4.97;;;4.37;;
2404;SDS011;1213;43.206;27.922;2023-01-16T11:06:21;4.50;;;4.10;;
2404;SDS011;1213;43.206;27.922;2023-01-16T11:08:48;3.63;;;3.03;;
2404;SDS011;1213;43.206;27.922;2023-01-16T11:11:14;5.63;;;4.13;;
2404;SDS011;1213;43.206;27.922;2023-01-16T11:13:58;6.00;;;3.33;;
2404;SDS011;1213;43.206;27.922;2023-01-16T11:16:43;5.90;;;3.67;;
2404;SDS011;1213;43.206;27.922;2023-01-16T11:19:27;5.60;;;4.13;;
2404;SDS011;1213;43.206;27.922;2023-01-16T11:21:59;6.53;;;4.60;;
2404;SDS011;1213;43.206;27.922;2023-01-16T11:24:38;6.60;;;4.30;;
2404;SDS011;1213;43.206;27.922;2023-01-16T11:27:05;4.90;;;3.47;;
2404;SDS011;1213;43.206;27.922;2023-01-16T11:29:34;7.40;;;4.47;;
2404;SDS011;1213;43.206;27.922;2023-01-16T11:32:03;6.80;;;5.00;;
2404;SDS011;1213;43.206;27.922;2023-01-16T11:34:29;7.90;;;4.40;;
2404;SDS011;1213;43.206;27.922;2023-01-16T11:36:56;9.13;;;3.57;;
2404;SDS011;1213;43.206;27.922;2023-01-16T11:39:23;4.00;;;3.30;;
2404;SDS011;1213;43.206;27.922;2023-01-16T11:41:50;4.00;;;3.20;;
2404;SDS011;1213;43.206;27.922;2023-01-16T11:47:09;5.50;;;4.00;;
2404;SDS011;1213;43.206;27.922;2023-01-16T11:49:37;3.73;;;3.40;;
2404;SDS011;1213;43.206;27.922;2023-01-16T11:52:03;4.47;;;3.60;;
2404;SDS011;1213;43.206;27.922;2023-01-16T11:54:30;7.60;;;4.20;;
2404;SDS011;1213;43.206;27.922;2023-01-16T12:07:41;6.37;;;4.50;;
2404;SDS011;1213;43.206;27.922;2023-01-16T12:10:44;5.10;;;4.30;;
2404;SDS011;1213;43.206;27.922;2023-01-16T12:13:03;6.33;;;4.10;;
2404;SDS011;1213;43.206;27.922;2023-01-16T12:18:39;8.03;;;4.93;;
2404;SDS011;1213;43.206;27.922;2023-01-16T12:26:40;8.03;;;4.77;;
2404;SDS011;1213;43.206;27.922;2023-01-16T12:29:23;7.87;;;4.33;;
2404;SDS011;1213;43.206;27.922;2023-01-16T12:42:21;11.20;;;6.27;;
2404;SDS011;1213;43.206;27.922;2023-01-16T13:00:25;6.43;;;4.30;;
2404;SDS011;1213;43.206;27.922;2023-01-16T13:02:54;5.30;;;4.80;;
2404;SDS011;1213;43.206;27.922;2023-01-16T13:05:21;7.37;;;4.97;;
2404;SDS011;1213;43.206;27.922;2023-01-16T13:07:54;12.03;;;6.93;;
2404;SDS011;1213;43.206;27.922;2023-01-16T13:10:43;6.57;;;5.40;;
2404;SDS011;1213;43.206;27.922;2023-01-16T13:13:26;9.60;;;4.50;;
2404;SDS011;1213;43.206;27.922;2023-01-16T13:16:02;4.80;;;3.93;;
2404;SDS011;1213;43.206;27.922;2023-01-16T13:18:37;7.23;;;4.57;;
2404;SDS011;1213;43.206;27.922;2023-01-16T13:21:06;10.30;;;5.67;;
2404;SDS011;1213;43.206;27.922;2023-01-16T13:23:33;10.97;;;5.73;;
2404;SDS011;1213;43.206;27.922;2023-01-16T13:26:09;16.00;;;5.77;;
2404;SDS011;1213;43.206;27.922;2023-01-16T13:28:39;10.67;;;7.13;;
2404;SDS011;1213;43.206;27.922;2023-01-16T13:31:17;11.80;;;6.10;;
2404;SDS011;1213;43.206;27.922;2023-01-16T13:33:44;9.53;;;6.50;;
2404;SDS011;1213;43.206;27.922;2023-01-16T13:36:15;14.10;;;6.07;;
2404;SDS011;1213;43.206;27.922;2023-01-16T13:38:56;11.93;;;6.43;;
2404;SDS011;1213;43.206;27.922;2023-01-16T13:41:28;6.50;;;5.37;;
2404;SDS011;1213;43.206;27.922;2023-01-16T13:43:56;8.57;;;5.53;;
2404;SDS011;1213;43.206;27.922;2023-01-16T13:46:42;6.03;;;4.37;;
2404;SDS011;1213;43.206;27.922;2023-01-16T13:49:12;10.40;;;5.30;;
2404;SDS011;1213;43.206;27.922;2023-01-16T13:51:40;6.70;;;5.23;;
2404;SDS011;1213;43.206;27.922;2023-01-16T13:54:07;5.83;;;5.13;;
2404;SDS011;1213;43.206;27.922;2023-01-16T13:56:38;8.60;;;5.60;;
2404;SDS011;1213;43.206;27.922;2023-01-16T14:06:44;9.53;;;6.13;;
2404;SDS011;1213;43.206;27.922;2023-01-16T14:09:22;11.13;;;7.30;;
2404;SDS011;1213;43.206;27.922;2023-01-16T14:12:01;12.33;;;5.87;;
2404;SDS011;1213;43.206;27.922;2023-01-16T14:17:29;11.37;;;8.67;;
2404;SDS011;1213;43.206;27.922;2023-01-16T14:20:33;11.60;;;6.60;;
2404;SDS011;1213;43.206;27.922;2023-01-16T14:23:00;10.53;;;6.10;;
2404;SDS011;1213;43.206;27.922;2023-01-16T14:25:45;8.90;;;5.60;;
2404;SDS011;1213;43.206;27.922;2023-01-16T14:28:15;15.73;;;8.50;;
2404;SDS011;1213;43.206;27.922;2023-01-16T14:30:42;17.23;;;8.93;;
2404;SDS011;1213;43.206;27.922;2023-01-16T14:33:14;15.60;;;8.37;;
2404;SDS011;1213;43.206;27.922;2023-01-16T14:35:57;14.70;;;9.07;;
2404;SDS011;1213;43.206;27.922;2023-01-16T14:38:28;8.50;;;6.23;;
2404;SDS011;1213;43.206;27.922;2023-01-16T14:40:59;10.30;;;6.97;;
2404;SDS011;1213;43.206;27.922;2023-01-16T14:46:51;13.40;;;7.30;;
2404;SDS011;1213;43.206;27.922;2023-01-16T14:55:43;9.00;;;6.40;;
2404;SDS011;1213;43.206;27.922;2023-01-16T14:58:12;12.53;;;7.00;;
2404;SDS011;1213;43.206;27.922;2023-01-16T15:00:38;20.50;;;7.13;;
2404;SDS011;1213;43.206;27.922;2023-01-16T15:03:14;12.80;;;6.47;;
2404;SDS011;1213;43.206;27.922;2023-01-16T15:05:52;12.57;;;8.23;;
2404;SDS011;1213;43.206;27.922;2023-01-16T15:08:25;10.00;;;6.87;;
2404;SDS011;1213;43.206;27.922;2023-01-16T15:10:52;37.03;;;10.10;;
2404;SDS011;1213;43.206;27.922;2023-01-16T15:16:28;7.87;;;7.13;;
2404;SDS011;1213;43.206;27.922;2023-01-16T15:19:16;9.87;;;6.70;;
2404;SDS011;1213;43.206;27.922;2023-01-16T15:22:00;15.73;;;9.07;;
2404;SDS011;1213;43.206;27.922;2023-01-16T15:24:26;18.90;;;7.37;;
2404;SDS011;1213;43.206;27.922;2023-01-16T15:27:02;14.50;;;9.30;;
2404;SDS011;1213;43.206;27.922;2023-01-16T15:29:35;12.93;;;8.13;;
2404;SDS011;1213;43.206;27.922;2023-01-16T15:32:09;17.27;;;8.00;;
2404;SDS011;1213;43.206;27.922;2023-01-16T15:34:47;11.17;;;6.90;;
2404;SDS011;1213;43.206;27.922;2023-01-16T15:37:23;15.57;;;8.37;;
2404;SDS011;1213;43.206;27.922;2023-01-16T15:39:48;8.80;;;7.20;;
2404;SDS011;1213;43.206;27.922;2023-01-16T15:42:16;10.37;;;7.77;;
2404;SDS011;1213;43.206;27.922;2023-01-16T15:45:11;11.83;;;8.17;;
2404;SDS011;1213;43.206;27.922;2023-01-16T15:52:51;11.80;;;8.10;;
2404;SDS011;1213;43.206;27.922;2023-01-16T15:55:20;15.37;;;9.80;;
2404;SDS011;1213;43.206;27.922;2023-01-16T15:57:48;14.50;;;7.30;;
2404;SDS011;1213;43.206;27.922;2023-01-16T16:00:29;15.17;;;8.60;;
2404;SDS011;1213;43.206;27.922;2023-01-16T16:02:57;16.43;;;9.17;;
2404;SDS011;1213;43.206;27.922;2023-01-16T16:05:26;15.23;;;9.43;;
2404;SDS011;1213;43.206;27.922;2023-01-16T16:07:52;14.57;;;8.17;;
2404;SDS011;1213;43.206;27.922;2023-01-16T16:10:18;23.53;;;10.70;;
2404;SDS011;1213;43.206;27.922;2023-01-16T16:13:03;13.60;;;9.53;;
2404;SDS011;1213;43.206;27.922;2023-01-16T16:15:29;14.73;;;8.67;;
2404;SDS011;1213;43.206;27.922;2023-01-16T16:18:14;15.50;;;9.27;;
2404;SDS011;1213;43.206;27.922;2023-01-16T16:20:44;13.37;;;7.53;;
2404;SDS011;1213;43.206;27.922;2023-01-16T16:23:14;19.03;;;11.20;;
2404;SDS011;1213;43.206;27.922;2023-01-16T16:28:21;10.37;;;8.63;;
2404;SDS011;1213;43.206;27.922;2023-01-16T16:30:53;21.20;;;10.40;;
2404;SDS011;1213;43.206;27.922;2023-01-16T16:33:19;15.53;;;9.67;;
2404;SDS011;1213;43.206;27.922;2023-01-16T16:35:48;16.40;;;12.17;;
2404;SDS011;1213;43.206;27.922;2023-01-16T16:38:22;19.27;;;11.43;;
2404;SDS011;1213;43.206;27.922;2023-01-16T16:43:58;11.83;;;9.10;;
2404;SDS011;1213;43.206;27.922;2023-01-16T16:48:48;14.17;;;9.07;;
2404;SDS011;1213;43.206;27.922;2023-01-16T16:51:18;14.70;;;10.90;;
2404;SDS011;1213;43.206;27.922;2023-01-16T16:53:45;19.53;;;12.70;;
2404;SDS011;1213;43.206;27.922;2023-01-16T16:56:11;15.33;;;10.03;;
2404;SDS011;1213;43.206;27.922;2023-01-16T16:58:41;17.37;;;9.60;;
2404;SDS011;1213;43.206;27.922;2023-01-16T17:01:10;29.10;;;11.37;;
2404;SDS011;1213;43.206;27.922;2023-01-16T17:03:35;16.27;;;9.80;;
2404;SDS011;1213;43.206;27.922;2023-01-16T17:06:01;15.80;;;10.20;;
2404;SDS011;1213;43.206;27.922;2023-01-16T17:08:27;16.27;;;9.50;;
2404;SDS011;1213;43.206;27.922;2023-01-16T17:10:55;20.77;;;9.97;;
2404;SDS011;1213;43.206;27.922;2023-01-16T17:13:22;19.47;;;10.50;;
2404;SDS011;1213;43.206;27.922;2023-01-16T17:15:55;18.80;;;10.57;;
2404;SDS011;1213;43.206;27.922;2023-01-16T17:18:23;12.97;;;9.60;;
2404;SDS011;1213;43.206;27.922;2023-01-16T17:20:49;23.37;;;12.07;;
2404;SDS011;1213;43.206;27.922;2023-01-16T17:23:17;25.40;;;10.30;;
2404;SDS011;1213;43.206;27.922;2023-01-16T17:25:43;19.50;;;9.67;;
2404;SDS011;1213;43.206;27.922;2023-01-16T17:28:09;17.07;;;8.90;;
2404;SDS011;1213;43.206;27.922;2023-01-16T17:30:34;20.63;;;10.70;;
2404;SDS011;1213;43.206;27.922;2023-01-16T17:35:26;18.13;;;11.80;;
2404;SDS011;1213;43.206;27.922;2023-01-16T17:37:51;18.60;;;10.60;;
2404;SDS011;1213;43.206;27.922;2023-01-16T17:40:17;16.90;;;10.20;;
2404;SDS011;1213;43.206;27.922;2023-01-16T17:42:42;20.97;;;12.10;;
2404;SDS011;1213;43.206;27.922;2023-01-16T17:45:34;22.97;;;13.17;;
2404;SDS011;1213;43.206;27.922;2023-01-16T17:48:21;16.90;;;10.93;;
2404;SDS011;1213;43.206;27.922;2023-01-16T17:50:46;22.33;;;12.90;;
2404;SDS011;1213;43.206;27.922;2023-01-16T17:53:12;20.90;;;12.57;;
2404;SDS011;1213;43.206;27.922;2023-01-16T17:55:39;20.63;;;12.37;;